sensor_id;sensor_type;location;lat;lon;timestamp;temperature;humidity
73750;SHT30;62058;48.406;-4.514;2023-07-31T00:01:17;19.28;90.80
73750;SHT30;62058;48.406;-4.514;2023-07-31T00:03:42;19.26;90.75
73750;SHT30;62058;48.406;-4.514;2023-07-31T00:06:07;19.23;90.95
73750;SHT30;62058;48.406;-4.514;2023-07-31T00:08:33;19.13;91.27
73750;SHT30;62058;48.406;-4.514;2023-07-31T00:10:58;19.26;90.72
73750;SHT30;62058;48.406;-4.514;2023-07-31T00:13:24;19.22;90.95
73750;SHT30;62058;48.406;-4.514;2023-07-31T00:15:49;19.27;90.56
73750;SHT30;62058;48.406;-4.514;2023-07-31T00:18:15;19.14;91.46
73750;SHT30;62058;48.406;-4.514;2023-07-31T00:20:40;19.28;90.93
73750;SHT30;62058;48.406;-4.514;2023-07-31T00:23:06;19.27;90.71
73750;SHT30;62058;48.406;-4.514;2023-07-31T00:25:31;19.24;91.04
73750;SHT30;62058;48.406;-4.514;2023-07-31T00:27:56;19.23;91.36
73750;SHT30;62058;48.406;-4.514;2023-07-31T00:30:22;19.28;90.84
73750;SHT30;62058;48.406;-4.514;2023-07-31T00:32:47;19.24;91.24
73750;SHT30;62058;48.406;-4.514;2023-07-31T00:35:13;19.33;90.67
73750;SHT30;62058;48.406;-4.514;2023-07-31T00:37:38;19.28;90.87
73750;SHT30;62058;48.406;-4.514;2023-07-31T00:40:04;19.28;90.89
73750;SHT30;62058;48.406;-4.514;2023-07-31T00:42:29;19.19;91.84
73750;SHT30;62058;48.406;-4.514;2023-07-31T00:44:55;19.26;91.22
73750;SHT30;62058;48.406;-4.514;2023-07-31T00:47:20;19.26;91.53
73750;SHT30;62058;48.406;-4.514;2023-07-31T00:49:46;19.26;91.45
73750;SHT30;62058;48.406;-4.514;2023-07-31T00:52:11;19.16;91.99
73750;SHT30;62058;48.406;-4.514;2023-07-31T00:54:37;19.19;92.41
73750;SHT30;62058;48.406;-4.514;2023-07-31T00:57:03;19.16;92.35
73750;SHT30;62058;48.406;-4.514;2023-07-31T00:59:28;19.16;92.39
73750;SHT30;62058;48.406;-4.514;2023-07-31T01:01:54;19.07;93.29
73750;SHT30;62058;48.406;-4.514;2023-07-31T01:04:20;19.07;92.45
73750;SHT30;62058;48.406;-4.514;2023-07-31T01:06:56;18.98;93.19
73750;SHT30;62058;48.406;-4.514;2023-07-31T01:09:42;19.04;92.92
73750;SHT30;62058;48.406;-4.514;2023-07-31T01:12:13;19.02;93.39
73750;SHT30;62058;48.406;-4.514;2023-07-31T01:14:39;18.83;94.21
73750;SHT30;62058;48.406;-4.514;2023-07-31T01:17:05;18.93;93.98
73750;SHT30;62058;48.406;-4.514;2023-07-31T01:19:30;18.93;93.87
73750;SHT30;62058;48.406;-4.514;2023-07-31T01:27:34;18.92;93.53
73750;SHT30;62058;48.406;-4.514;2023-07-31T01:30:15;18.75;94.81
73750;SHT30;62058;48.406;-4.514;2023-07-31T01:32:43;18.80;94.69
73750;SHT30;62058;48.406;-4.514;2023-07-31T01:35:10;18.75;94.90
73750;SHT30;62058;48.406;-4.514;2023-07-31T01:37:35;18.79;94.43
73750;SHT30;62058;48.406;-4.514;2023-07-31T01:40:01;18.80;94.80
73750;SHT30;62058;48.406;-4.514;2023-07-31T01:42:26;18.82;94.85
73750;SHT30;62058;48.406;-4.514;2023-07-31T01:44:52;18.75;95.63
73750;SHT30;62058;48.406;-4.514;2023-07-31T01:47:17;18.68;95.75
73750;SHT30;62058;48.406;-4.514;2023-07-31T01:49:42;18.66;96.07
73750;SHT30;62058;48.406;-4.514;2023-07-31T01:52:08;18.71;96.00
73750;SHT30;62058;48.406;-4.514;2023-07-31T01:54:33;18.65;96.27
73750;SHT30;62058;48.406;-4.514;2023-07-31T01:56:59;18.61;96.21
73750;SHT30;62058;48.406;-4.514;2023-07-31T01:59:24;18.65;95.91
73750;SHT30;62058;48.406;-4.514;2023-07-31T02:01:49;18.61;95.85
73750;SHT30;62058;48.406;-4.514;2023-07-31T02:04:15;18.59;96.63
73750;SHT30;62058;48.406;-4.514;2023-07-31T02:06:40;18.59;96.43
73750;SHT30;62058;48.406;-4.514;2023-07-31T02:09:06;18.56;96.84
73750;SHT30;62058;48.406;-4.514;2023-07-31T02:11:31;18.56;96.57
73750;SHT30;62058;48.406;-4.514;2023-07-31T02:13:56;18.62;96.47
73750;SHT30;62058;48.406;-4.514;2023-07-31T02:16:22;18.58;97.14
73750;SHT30;62058;48.406;-4.514;2023-07-31T02:18:47;18.58;97.02
73750;SHT30;62058;48.406;-4.514;2023-07-31T02:21:13;18.55;97.10
73750;SHT30;62058;48.406;-4.514;2023-07-31T02:23:38;18.55;97.29
73750;SHT30;62058;48.406;-4.514;2023-07-31T02:26:03;18.52;97.44
73750;SHT30;62058;48.406;-4.514;2023-07-31T02:28:29;18.59;96.89
73750;SHT30;62058;48.406;-4.514;2023-07-31T02:30:55;18.49;97.47
73750;SHT30;62058;48.406;-4.514;2023-07-31T02:33:20;18.62;96.77
73750;SHT30;62058;48.406;-4.514;2023-07-31T02:35:46;18.56;97.20
73750;SHT30;62058;48.406;-4.514;2023-07-31T02:38:11;18.47;98.46
73750;SHT30;62058;48.406;-4.514;2023-07-31T02:40:37;18.38;99.18
73750;SHT30;62058;48.406;-4.514;2023-07-31T02:43:02;18.34;98.58
73750;SHT30;62058;48.406;-4.514;2023-07-31T02:45:27;18.22;99.78
73750;SHT30;62058;48.406;-4.514;2023-07-31T02:47:53;18.22;99.73
73750;SHT30;62058;48.406;-4.514;2023-07-31T02:50:18;18.21;99.94
73750;SHT30;62058;48.406;-4.514;2023-07-31T02:52:43;18.18;99.98
73750;SHT30;62058;48.406;-4.514;2023-07-31T02:55:09;18.19;99.99
73750;SHT30;62058;48.406;-4.514;2023-07-31T02:57:34;18.17;99.99
73750;SHT30;62058;48.406;-4.514;2023-07-31T03:00:00;18.18;99.70
73750;SHT30;62058;48.406;-4.514;2023-07-31T03:02:25;18.15;99.99
73750;SHT30;62058;48.406;-4.514;2023-07-31T03:04:50;18.18;99.99
73750;SHT30;62058;48.406;-4.514;2023-07-31T03:07:16;18.17;99.99
73750;SHT30;62058;48.406;-4.514;2023-07-31T03:09:41;18.24;99.99
73750;SHT30;62058;48.406;-4.514;2023-07-31T03:12:07;18.21;99.99
73750;SHT30;62058;48.406;-4.514;2023-07-31T03:14:33;18.22;99.99
73750;SHT30;62058;48.406;-4.514;2023-07-31T03:16:59;18.24;99.97
73750;SHT30;62058;48.406;-4.514;2023-07-31T03:19:24;18.19;99.99
73750;SHT30;62058;48.406;-4.514;2023-07-31T03:21:50;18.25;99.96
73750;SHT30;62058;48.406;-4.514;2023-07-31T03:24:15;18.22;99.88
73750;SHT30;62058;48.406;-4.514;2023-07-31T03:26:40;18.25;99.99
73750;SHT30;62058;48.406;-4.514;2023-07-31T03:29:07;18.27;99.71
73750;SHT30;62058;48.406;-4.514;2023-07-31T03:31:32;18.27;99.67
73750;SHT30;62058;48.406;-4.514;2023-07-31T03:33:58;18.27;99.82
73750;SHT30;62058;48.406;-4.514;2023-07-31T03:36:23;18.27;99.67
73750;SHT30;62058;48.406;-4.514;2023-07-31T03:38:48;18.28;99.99
73750;SHT30;62058;48.406;-4.514;2023-07-31T03:41:14;18.25;99.99
73750;SHT30;62058;48.406;-4.514;2023-07-31T03:43:39;18.22;99.87
73750;SHT30;62058;48.406;-4.514;2023-07-31T03:46:05;18.29;99.54
73750;SHT30;62058;48.406;-4.514;2023-07-31T03:48:30;18.29;99.61
73750;SHT30;62058;48.406;-4.514;2023-07-31T03:50:55;18.28;99.71
73750;SHT30;62058;48.406;-4.514;2023-07-31T03:53:21;18.28;99.75
73750;SHT30;62058;48.406;-4.514;2023-07-31T03:55:46;18.29;99.60
73750;SHT30;62058;48.406;-4.514;2023-07-31T03:58:12;18.34;99.50
73750;SHT30;62058;48.406;-4.514;2023-07-31T04:00:37;18.38;99.32
73750;SHT30;62058;48.406;-4.514;2023-07-31T04:03:03;18.34;99.51
73750;SHT30;62058;48.406;-4.514;2023-07-31T04:05:31;18.29;99.68
73750;SHT30;62058;48.406;-4.514;2023-07-31T04:07:56;18.29;99.61
73750;SHT30;62058;48.406;-4.514;2023-07-31T04:10:21;18.27;99.72
73750;SHT30;62058;48.406;-4.514;2023-07-31T04:12:48;18.27;99.80
73750;SHT30;62058;48.406;-4.514;2023-07-31T04:15:13;18.34;99.52
73750;SHT30;62058;48.406;-4.514;2023-07-31T04:17:38;18.41;99.28
73750;SHT30;62058;48.406;-4.514;2023-07-31T04:20:04;18.41;99.31
73750;SHT30;62058;48.406;-4.514;2023-07-31T04:22:30;18.41;99.33
73750;SHT30;62058;48.406;-4.514;2023-07-31T04:24:55;18.38;99.23
73750;SHT30;62058;48.406;-4.514;2023-07-31T04:27:21;18.45;99.22
73750;SHT30;62058;48.406;-4.514;2023-07-31T04:29:46;18.41;99.29
73750;SHT30;62058;48.406;-4.514;2023-07-31T04:32:12;18.41;99.26
73750;SHT30;62058;48.406;-4.514;2023-07-31T04:34:38;18.41;99.25
73750;SHT30;62058;48.406;-4.514;2023-07-31T04:37:03;18.42;99.20
73750;SHT30;62058;48.406;-4.514;2023-07-31T04:39:29;18.42;99.18
73750;SHT30;62058;48.406;-4.514;2023-07-31T04:41:54;18.51;98.97
73750;SHT30;62058;48.406;-4.514;2023-07-31T04:44:19;18.47;99.12
73750;SHT30;62058;48.406;-4.514;2023-07-31T04:46:45;18.51;98.98
73750;SHT30;62058;48.406;-4.514;2023-07-31T04:49:11;18.55;98.81
73750;SHT30;62058;48.406;-4.514;2023-07-31T04:51:36;18.55;98.80
73750;SHT30;62058;48.406;-4.514;2023-07-31T04:54:02;18.58;98.62
73750;SHT30;62058;48.406;-4.514;2023-07-31T04:56:27;18.49;98.78
73750;SHT30;62058;48.406;-4.514;2023-07-31T04:58:52;18.52;98.83
73750;SHT30;62058;48.406;-4.514;2023-07-31T05:01:18;18.58;98.76
73750;SHT30;62058;48.406;-4.514;2023-07-31T05:03:43;18.59;98.58
73750;SHT30;62058;48.406;-4.514;2023-07-31T05:06:08;18.58;98.69
73750;SHT30;62058;48.406;-4.514;2023-07-31T05:08:34;18.58;98.62
73750;SHT30;62058;48.406;-4.514;2023-07-31T05:10:59;18.66;98.63
73750;SHT30;62058;48.406;-4.514;2023-07-31T05:13:25;18.65;98.60
73750;SHT30;62058;48.406;-4.514;2023-07-31T05:15:50;18.59;98.65
73750;SHT30;62058;48.406;-4.514;2023-07-31T05:18:15;18.56;98.78
73750;SHT30;62058;48.406;-4.514;2023-07-31T05:20:41;18.51;98.95
73750;SHT30;62058;48.406;-4.514;2023-07-31T05:23:06;18.58;98.89
73750;SHT30;62058;48.406;-4.514;2023-07-31T05:25:32;18.63;98.79
73750;SHT30;62058;48.406;-4.514;2023-07-31T05:27:57;18.62;98.74
73750;SHT30;62058;48.406;-4.514;2023-07-31T05:30:23;18.65;98.84
73750;SHT30;62058;48.406;-4.514;2023-07-31T05:32:48;18.71;98.62
73750;SHT30;62058;48.406;-4.514;2023-07-31T05:35:13;18.68;98.66
73750;SHT30;62058;48.406;-4.514;2023-07-31T05:37:39;18.69;98.52
73750;SHT30;62058;48.406;-4.514;2023-07-31T05:40:05;18.69;98.57
73750;SHT30;62058;48.406;-4.514;2023-07-31T05:42:30;18.69;98.46
73750;SHT30;62058;48.406;-4.514;2023-07-31T05:44:56;18.76;98.50
73750;SHT30;62058;48.406;-4.514;2023-07-31T05:47:21;18.75;98.41
73750;SHT30;62058;48.406;-4.514;2023-07-31T05:49:48;18.73;98.50
73750;SHT30;62058;48.406;-4.514;2023-07-31T05:52:14;18.76;98.12
73750;SHT30;62058;48.406;-4.514;2023-07-31T05:54:39;18.66;98.28
73750;SHT30;62058;48.406;-4.514;2023-07-31T05:57:05;18.69;98.14
73750;SHT30;62058;48.406;-4.514;2023-07-31T05:59:30;18.69;98.29
73750;SHT30;62058;48.406;-4.514;2023-07-31T06:01:58;18.68;98.41
73750;SHT30;62058;48.406;-4.514;2023-07-31T06:04:23;18.71;98.57
73750;SHT30;62058;48.406;-4.514;2023-07-31T06:06:50;18.72;98.53
73750;SHT30;62058;48.406;-4.514;2023-07-31T06:09:16;18.73;98.55
73750;SHT30;62058;48.406;-4.514;2023-07-31T06:11:41;18.75;98.46
73750;SHT30;62058;48.406;-4.514;2023-07-31T06:14:06;18.76;98.36
73750;SHT30;62058;48.406;-4.514;2023-07-31T06:16:32;18.73;98.70
73750;SHT30;62058;48.406;-4.514;2023-07-31T06:18:57;18.73;98.76
73750;SHT30;62058;48.406;-4.514;2023-07-31T06:21:23;18.79;98.72
73750;SHT30;62058;48.406;-4.514;2023-07-31T06:23:48;18.73;98.73
73750;SHT30;62058;48.406;-4.514;2023-07-31T06:26:13;18.72;98.53
73750;SHT30;62058;48.406;-4.514;2023-07-31T06:28:39;18.79;98.73
73750;SHT30;62058;48.406;-4.514;2023-07-31T06:31:05;18.82;98.89
73750;SHT30;62058;48.406;-4.514;2023-07-31T06:33:30;18.80;98.85
73750;SHT30;62058;48.406;-4.514;2023-07-31T06:35:55;18.86;98.81
73750;SHT30;62058;48.406;-4.514;2023-07-31T06:38:25;18.83;99.17
73750;SHT30;62058;48.406;-4.514;2023-07-31T06:40:51;18.76;99.36
73750;SHT30;62058;48.406;-4.514;2023-07-31T06:43:16;18.72;99.99
73750;SHT30;62058;48.406;-4.514;2023-07-31T06:45:42;18.75;99.99
73750;SHT30;62058;48.406;-4.514;2023-07-31T06:48:07;18.73;99.99
73750;SHT30;62058;48.406;-4.514;2023-07-31T06:50:32;18.79;99.99
73750;SHT30;62058;48.406;-4.514;2023-07-31T06:52:58;18.79;99.98
73750;SHT30;62058;48.406;-4.514;2023-07-31T06:55:24;18.85;99.99
73750;SHT30;62058;48.406;-4.514;2023-07-31T06:57:52;18.83;99.99
73750;SHT30;62058;48.406;-4.514;2023-07-31T07:00:18;18.86;99.99
73750;SHT30;62058;48.406;-4.514;2023-07-31T07:02:44;18.86;99.99
73750;SHT30;62058;48.406;-4.514;2023-07-31T07:05:10;18.88;99.99
73750;SHT30;62058;48.406;-4.514;2023-07-31T07:07:36;18.96;99.99
73750;SHT30;62058;48.406;-4.514;2023-07-31T07:10:01;18.83;99.99
73750;SHT30;62058;48.406;-4.514;2023-07-31T07:12:29;18.86;99.99
73750;SHT30;62058;48.406;-4.514;2023-07-31T07:14:55;18.93;99.99
73750;SHT30;62058;48.406;-4.514;2023-07-31T07:17:20;18.86;99.99
73750;SHT30;62058;48.406;-4.514;2023-07-31T07:19:47;18.89;99.99
73750;SHT30;62058;48.406;-4.514;2023-07-31T07:22:13;18.89;99.93
73750;SHT30;62058;48.406;-4.514;2023-07-31T07:24:38;18.92;99.99
73750;SHT30;62058;48.406;-4.514;2023-07-31T07:27:04;18.85;99.99
73750;SHT30;62058;48.406;-4.514;2023-07-31T07:29:29;18.88;99.82
73750;SHT30;62058;48.406;-4.514;2023-07-31T07:31:55;18.83;99.99
73750;SHT30;62058;48.406;-4.514;2023-07-31T07:34:24;18.82;99.94
73750;SHT30;62058;48.406;-4.514;2023-07-31T07:36:49;18.80;99.91
73750;SHT30;62058;48.406;-4.514;2023-07-31T07:39:14;18.75;99.99
73750;SHT30;62058;48.406;-4.514;2023-07-31T07:41:40;18.79;99.99
73750;SHT30;62058;48.406;-4.514;2023-07-31T07:44:05;18.85;99.99
73750;SHT30;62058;48.406;-4.514;2023-07-31T07:46:31;18.75;99.99
73750;SHT30;62058;48.406;-4.514;2023-07-31T07:48:56;18.80;99.99
73750;SHT30;62058;48.406;-4.514;2023-07-31T07:51:22;18.77;99.81
73750;SHT30;62058;48.406;-4.514;2023-07-31T07:53:47;18.77;99.85
73750;SHT30;62058;48.406;-4.514;2023-07-31T07:56:12;18.76;99.47
73750;SHT30;62058;48.406;-4.514;2023-07-31T07:58:38;18.79;99.25
73750;SHT30;62058;48.406;-4.514;2023-07-31T08:01:03;18.77;99.20
73750;SHT30;62058;48.406;-4.514;2023-07-31T08:03:28;18.83;99.11
73750;SHT30;62058;48.406;-4.514;2023-07-31T08:06:00;18.90;98.68
73750;SHT30;62058;48.406;-4.514;2023-07-31T08:08:26;18.89;98.75
73750;SHT30;62058;48.406;-4.514;2023-07-31T08:10:52;18.89;98.51
73750;SHT30;62058;48.406;-4.514;2023-07-31T08:13:17;18.90;98.82
73750;SHT30;62058;48.406;-4.514;2023-07-31T08:15:42;18.98;98.51
73750;SHT30;62058;48.406;-4.514;2023-07-31T08:18:08;19.06;98.52
73750;SHT30;62058;48.406;-4.514;2023-07-31T08:20:34;19.04;98.48
73750;SHT30;62058;48.406;-4.514;2023-07-31T08:22:59;19.09;98.38
73750;SHT30;62058;48.406;-4.514;2023-07-31T08:25:25;18.98;98.11
73750;SHT30;62058;48.406;-4.514;2023-07-31T08:27:50;19.03;98.18
73750;SHT30;62058;48.406;-4.514;2023-07-31T08:30:18;19.00;98.57
73750;SHT30;62058;48.406;-4.514;2023-07-31T08:32:44;19.07;98.58
73750;SHT30;62058;48.406;-4.514;2023-07-31T08:35:09;19.04;98.24
73750;SHT30;62058;48.406;-4.514;2023-07-31T08:37:35;19.10;98.40
73750;SHT30;62058;48.406;-4.514;2023-07-31T08:40:00;19.16;98.19
73750;SHT30;62058;48.406;-4.514;2023-07-31T08:42:26;19.13;98.04
73750;SHT30;62058;48.406;-4.514;2023-07-31T08:44:52;19.13;98.43
73750;SHT30;62058;48.406;-4.514;2023-07-31T08:47:19;19.13;98.24
73750;SHT30;62058;48.406;-4.514;2023-07-31T08:49:46;19.10;98.30
73750;SHT30;62058;48.406;-4.514;2023-07-31T08:52:11;19.07;98.36
73750;SHT30;62058;48.406;-4.514;2023-07-31T08:54:37;19.03;98.28
73750;SHT30;62058;48.406;-4.514;2023-07-31T08:57:04;19.12;98.60
73750;SHT30;62058;48.406;-4.514;2023-07-31T08:59:31;19.10;98.63
73750;SHT30;62058;48.406;-4.514;2023-07-31T09:01:58;19.14;98.47
73750;SHT30;62058;48.406;-4.514;2023-07-31T09:04:27;19.16;98.12
73750;SHT30;62058;48.406;-4.514;2023-07-31T09:06:58;19.13;98.39
73750;SHT30;62058;48.406;-4.514;2023-07-31T09:09:25;19.31;98.33
73750;SHT30;62058;48.406;-4.514;2023-07-31T09:11:51;19.38;98.30
73750;SHT30;62058;48.406;-4.514;2023-07-31T09:14:17;19.38;98.14
73750;SHT30;62058;48.406;-4.514;2023-07-31T09:16:56;19.43;97.84
73750;SHT30;62058;48.406;-4.514;2023-07-31T09:19:34;19.46;97.95
73750;SHT30;62058;48.406;-4.514;2023-07-31T09:22:02;19.53;97.75
73750;SHT30;62058;48.406;-4.514;2023-07-31T09:24:32;19.63;97.84
73750;SHT30;62058;48.406;-4.514;2023-07-31T09:26:59;19.65;97.94
73750;SHT30;62058;48.406;-4.514;2023-07-31T09:29:26;19.70;97.79
73750;SHT30;62058;48.406;-4.514;2023-07-31T09:31:53;19.71;97.52
73750;SHT30;62058;48.406;-4.514;2023-07-31T09:34:19;19.58;97.33
73750;SHT30;62058;48.406;-4.514;2023-07-31T09:36:47;19.54;97.58
73750;SHT30;62058;48.406;-4.514;2023-07-31T09:39:14;19.60;97.75
73750;SHT30;62058;48.406;-4.514;2023-07-31T09:41:46;19.51;97.79
73750;SHT30;62058;48.406;-4.514;2023-07-31T09:44:11;19.51;97.96
73750;SHT30;62058;48.406;-4.514;2023-07-31T09:46:37;19.50;97.74
73750;SHT30;62058;48.406;-4.514;2023-07-31T09:49:10;19.58;97.73
73750;SHT30;62058;48.406;-4.514;2023-07-31T09:51:41;19.53;97.51
73750;SHT30;62058;48.406;-4.514;2023-07-31T09:54:14;19.57;97.48
73750;SHT30;62058;48.406;-4.514;2023-07-31T09:56:47;19.57;97.81
73750;SHT30;62058;48.406;-4.514;2023-07-31T09:59:18;19.53;97.49
73750;SHT30;62058;48.406;-4.514;2023-07-31T10:01:45;19.67;97.43
73750;SHT30;62058;48.406;-4.514;2023-07-31T10:04:12;19.70;97.48
73750;SHT30;62058;48.406;-4.514;2023-07-31T10:06:39;19.82;97.68
73750;SHT30;62058;48.406;-4.514;2023-07-31T10:09:07;19.78;97.31
73750;SHT30;62058;48.406;-4.514;2023-07-31T10:11:39;19.89;97.46
73750;SHT30;62058;48.406;-4.514;2023-07-31T10:14:07;20.01;98.05
73750;SHT30;62058;48.406;-4.514;2023-07-31T10:16:33;19.89;97.76
73750;SHT30;62058;48.406;-4.514;2023-07-31T10:19:00;19.89;97.12
73750;SHT30;62058;48.406;-4.514;2023-07-31T10:21:27;19.92;96.91
73750;SHT30;62058;48.406;-4.514;2023-07-31T10:23:55;19.91;97.03
73750;SHT30;62058;48.406;-4.514;2023-07-31T10:26:23;19.99;97.30
73750;SHT30;62058;48.406;-4.514;2023-07-31T10:28:50;19.86;97.07
73750;SHT30;62058;48.406;-4.514;2023-07-31T10:31:18;19.81;97.15
73750;SHT30;62058;48.406;-4.514;2023-07-31T10:33:44;19.84;97.28
73750;SHT30;62058;48.406;-4.514;2023-07-31T10:36:28;19.79;97.43
73750;SHT30;62058;48.406;-4.514;2023-07-31T10:38:55;19.77;97.52
73750;SHT30;62058;48.406;-4.514;2023-07-31T10:41:30;19.64;97.64
73750;SHT30;62058;48.406;-4.514;2023-07-31T10:44:00;19.79;98.25
73750;SHT30;62058;48.406;-4.514;2023-07-31T10:46:27;19.88;97.13
73750;SHT30;62058;48.406;-4.514;2023-07-31T10:49:00;19.79;97.03
73750;SHT30;62058;48.406;-4.514;2023-07-31T10:51:33;19.84;96.81
73750;SHT30;62058;48.406;-4.514;2023-07-31T10:54:13;19.88;97.16
73750;SHT30;62058;48.406;-4.514;2023-07-31T10:56:44;19.85;97.39
73750;SHT30;62058;48.406;-4.514;2023-07-31T10:59:10;19.85;97.20
73750;SHT30;62058;48.406;-4.514;2023-07-31T11:01:54;19.95;97.32
73750;SHT30;62058;48.406;-4.514;2023-07-31T11:04:23;19.88;97.25
73750;SHT30;62058;48.406;-4.514;2023-07-31T11:07:01;19.85;97.46
73750;SHT30;62058;48.406;-4.514;2023-07-31T11:09:29;19.77;97.17
73750;SHT30;62058;48.406;-4.514;2023-07-31T11:11:56;19.78;97.99
73750;SHT30;62058;48.406;-4.514;2023-07-31T11:14:22;19.67;97.54
73750;SHT30;62058;48.406;-4.514;2023-07-31T11:16:50;19.67;97.98
73750;SHT30;62058;48.406;-4.514;2023-07-31T11:19:24;19.58;97.71
73750;SHT30;62058;48.406;-4.514;2023-07-31T11:21:51;19.47;98.19
73750;SHT30;62058;48.406;-4.514;2023-07-31T11:24:17;19.53;98.81
73750;SHT30;62058;48.406;-4.514;2023-07-31T11:26:52;19.50;99.08
73750;SHT30;62058;48.406;-4.514;2023-07-31T11:29:18;19.44;98.41
73750;SHT30;62058;48.406;-4.514;2023-07-31T11:31:44;19.44;99.05
73750;SHT30;62058;48.406;-4.514;2023-07-31T11:34:10;19.41;98.46
73750;SHT30;62058;48.406;-4.514;2023-07-31T11:36:35;19.54;99.06
73750;SHT30;62058;48.406;-4.514;2023-07-31T11:39:10;19.58;98.51
73750;SHT30;62058;48.406;-4.514;2023-07-31T11:41:40;19.63;98.34
73750;SHT30;62058;48.406;-4.514;2023-07-31T11:44:06;19.63;97.81
73750;SHT30;62058;48.406;-4.514;2023-07-31T11:46:31;19.63;98.12
73750;SHT30;62058;48.406;-4.514;2023-07-31T11:49:00;19.70;98.76
73750;SHT30;62058;48.406;-4.514;2023-07-31T11:51:27;19.70;97.87
73750;SHT30;62058;48.406;-4.514;2023-07-31T11:53:56;19.74;98.62
73750;SHT30;62058;48.406;-4.514;2023-07-31T11:56:23;19.78;98.90
73750;SHT30;62058;48.406;-4.514;2023-07-31T11:59:00;19.78;99.16
73750;SHT30;62058;48.406;-4.514;2023-07-31T12:01:28;19.86;98.23
73750;SHT30;62058;48.406;-4.514;2023-07-31T12:03:54;19.89;98.45
73750;SHT30;62058;48.406;-4.514;2023-07-31T12:06:21;19.89;98.06
73750;SHT30;62058;48.406;-4.514;2023-07-31T12:08:47;19.82;98.27
73750;SHT30;62058;48.406;-4.514;2023-07-31T12:11:12;19.79;98.27
73750;SHT30;62058;48.406;-4.514;2023-07-31T12:13:43;19.89;98.89
73750;SHT30;62058;48.406;-4.514;2023-07-31T12:16:08;19.85;98.74
73750;SHT30;62058;48.406;-4.514;2023-07-31T12:18:36;19.73;98.35
73750;SHT30;62058;48.406;-4.514;2023-07-31T12:21:04;19.73;98.93
73750;SHT30;62058;48.406;-4.514;2023-07-31T12:23:31;19.77;98.94
73750;SHT30;62058;48.406;-4.514;2023-07-31T12:26:11;19.70;98.19
73750;SHT30;62058;48.406;-4.514;2023-07-31T12:28:40;19.61;98.57
73750;SHT30;62058;48.406;-4.514;2023-07-31T12:31:06;19.61;99.13
73750;SHT30;62058;48.406;-4.514;2023-07-31T12:33:33;19.54;98.73
73750;SHT30;62058;48.406;-4.514;2023-07-31T12:36:01;19.49;98.69
73750;SHT30;62058;48.406;-4.514;2023-07-31T12:38:27;19.35;98.81
73750;SHT30;62058;48.406;-4.514;2023-07-31T12:40:52;19.37;99.06
73750;SHT30;62058;48.406;-4.514;2023-07-31T12:43:17;19.24;99.06
73750;SHT30;62058;48.406;-4.514;2023-07-31T12:45:43;19.26;98.86
73750;SHT30;62058;48.406;-4.514;2023-07-31T12:48:08;19.33;99.17
73750;SHT30;62058;48.406;-4.514;2023-07-31T12:50:33;19.41;98.87
73750;SHT30;62058;48.406;-4.514;2023-07-31T12:53:02;19.37;98.87
73750;SHT30;62058;48.406;-4.514;2023-07-31T12:55:28;19.49;98.75
73750;SHT30;62058;48.406;-4.514;2023-07-31T12:57:55;19.49;98.39
73750;SHT30;62058;48.406;-4.514;2023-07-31T13:00:21;19.47;98.64
73750;SHT30;62058;48.406;-4.514;2023-07-31T13:02:46;19.65;99.17
73750;SHT30;62058;48.406;-4.514;2023-07-31T13:05:11;19.75;98.30
73750;SHT30;62058;48.406;-4.514;2023-07-31T13:07:38;19.64;98.37
73750;SHT30;62058;48.406;-4.514;2023-07-31T13:10:04;19.58;98.35
73750;SHT30;62058;48.406;-4.514;2023-07-31T13:12:29;19.47;98.44
73750;SHT30;62058;48.406;-4.514;2023-07-31T13:14:55;19.46;98.46
73750;SHT30;62058;48.406;-4.514;2023-07-31T13:17:20;19.41;98.49
73750;SHT30;62058;48.406;-4.514;2023-07-31T13:19:45;19.46;98.60
73750;SHT30;62058;48.406;-4.514;2023-07-31T13:22:11;19.34;98.65
73750;SHT30;62058;48.406;-4.514;2023-07-31T13:24:36;19.34;98.82
73750;SHT30;62058;48.406;-4.514;2023-07-31T13:27:02;19.24;98.66
73750;SHT30;62058;48.406;-4.514;2023-07-31T13:29:27;19.27;98.42
73750;SHT30;62058;48.406;-4.514;2023-07-31T13:31:53;19.27;98.82
73750;SHT30;62058;48.406;-4.514;2023-07-31T13:34:18;19.37;99.20
73750;SHT30;62058;48.406;-4.514;2023-07-31T13:36:43;19.43;98.78
73750;SHT30;62058;48.406;-4.514;2023-07-31T13:39:09;19.40;98.86
73750;SHT30;62058;48.406;-4.514;2023-07-31T13:41:34;19.35;98.56
73750;SHT30;62058;48.406;-4.514;2023-07-31T13:44:00;19.31;98.81
73750;SHT30;62058;48.406;-4.514;2023-07-31T13:46:25;19.27;98.78
73750;SHT30;62058;48.406;-4.514;2023-07-31T13:48:51;19.23;98.67
73750;SHT30;62058;48.406;-4.514;2023-07-31T13:51:20;19.26;98.94
73750;SHT30;62058;48.406;-4.514;2023-07-31T13:53:45;19.24;99.06
73750;SHT30;62058;48.406;-4.514;2023-07-31T13:56:10;19.23;99.37
73750;SHT30;62058;48.406;-4.514;2023-07-31T13:58:36;19.17;98.95
73750;SHT30;62058;48.406;-4.514;2023-07-31T14:01:01;19.23;98.61
73750;SHT30;62058;48.406;-4.514;2023-07-31T14:03:26;19.23;98.77
73750;SHT30;62058;48.406;-4.514;2023-07-31T14:05:52;19.37;99.60
73750;SHT30;62058;48.406;-4.514;2023-07-31T14:08:18;19.31;98.83
73750;SHT30;62058;48.406;-4.514;2023-07-31T14:10:43;19.30;98.83
73750;SHT30;62058;48.406;-4.514;2023-07-31T14:13:09;19.27;98.84
73750;SHT30;62058;48.406;-4.514;2023-07-31T14:15:34;19.12;98.66
73750;SHT30;62058;48.406;-4.514;2023-07-31T14:18:01;19.20;99.20
73750;SHT30;62058;48.406;-4.514;2023-07-31T14:20:27;19.27;99.42
73750;SHT30;62058;48.406;-4.514;2023-07-31T14:22:52;19.30;99.41
73750;SHT30;62058;48.406;-4.514;2023-07-31T14:25:17;19.19;98.62
73750;SHT30;62058;48.406;-4.514;2023-07-31T14:27:43;19.27;98.95
73750;SHT30;62058;48.406;-4.514;2023-07-31T14:30:08;19.26;98.79
73750;SHT30;62058;48.406;-4.514;2023-07-31T14:32:34;19.24;99.11
73750;SHT30;62058;48.406;-4.514;2023-07-31T14:34:59;19.23;98.98
73750;SHT30;62058;48.406;-4.514;2023-07-31T14:37:26;19.20;99.36
73750;SHT30;62058;48.406;-4.514;2023-07-31T14:39:52;19.23;99.92
73750;SHT30;62058;48.406;-4.514;2023-07-31T14:42:18;19.27;99.99
73750;SHT30;62058;48.406;-4.514;2023-07-31T14:44:44;19.34;99.99
73750;SHT30;62058;48.406;-4.514;2023-07-31T14:47:09;19.30;99.95
73750;SHT30;62058;48.406;-4.514;2023-07-31T14:49:38;19.26;99.91
73750;SHT30;62058;48.406;-4.514;2023-07-31T14:52:03;19.27;99.99
73750;SHT30;62058;48.406;-4.514;2023-07-31T14:54:29;19.22;99.98
73750;SHT30;62058;48.406;-4.514;2023-07-31T14:56:54;19.23;99.81
73750;SHT30;62058;48.406;-4.514;2023-07-31T14:59:20;19.19;99.92
73750;SHT30;62058;48.406;-4.514;2023-07-31T15:01:45;19.22;99.99
73750;SHT30;62058;48.406;-4.514;2023-07-31T15:04:10;19.23;99.99
73750;SHT30;62058;48.406;-4.514;2023-07-31T15:06:36;19.19;99.99
73750;SHT30;62058;48.406;-4.514;2023-07-31T15:09:04;19.19;99.94
73750;SHT30;62058;48.406;-4.514;2023-07-31T15:11:29;19.20;99.91
73750;SHT30;62058;48.406;-4.514;2023-07-31T15:13:54;19.23;99.99
73750;SHT30;62058;48.406;-4.514;2023-07-31T15:16:20;19.19;99.98